createdAt,value
2023-02-05T00:00:22.367Z,102295.79
2023-02-05T00:03:13.232Z,102299.20
2023-02-05T00:06:04.177Z,102292.29
2023-02-05T00:08:54.754Z,102289.91
2023-02-05T00:11:45.100Z,102295.02
2023-02-05T00:14:35.580Z,102296.44
2023-02-05T00:17:26.121Z,102305.13
2023-02-05T00:20:17.380Z,102306.48
2023-02-05T00:23:08.454Z,102308.75
2023-02-05T00:26:00.651Z,102312.46
2023-02-05T00:28:51.929Z,102317.08
2023-02-05T00:31:43.566Z,102314.38
2023-02-05T00:34:34.363Z,102315.23
2023-02-05T00:37:24.731Z,102316.46
2023-02-05T00:40:17.240Z,102314.41
2023-02-05T00:43:08.981Z,102312.13
2023-02-05T00:46:00.138Z,102311.89
2023-02-05T00:48:51.537Z,102314.09
2023-02-05T00:51:42.128Z,102317.67
2023-02-05T00:54:33.089Z,102321.18
2023-02-05T00:57:24.998Z,102322.67
2023-02-05T01:00:18.283Z,102328.98
2023-02-05T01:03:08.942Z,102326.88
2023-02-05T01:05:59.997Z,102333.70
2023-02-05T01:08:50.965Z,102337.98
2023-02-05T01:11:41.290Z,102347.20
2023-02-05T01:14:31.387Z,102350.35
2023-02-05T01:17:22.336Z,102349.98
2023-02-05T01:20:16.186Z,102359.14
2023-02-05T01:23:06.610Z,102362.89
2023-02-05T01:25:57.821Z,102369.48
2023-02-05T01:28:49.017Z,102376.48
2023-02-05T01:31:39.905Z,102383.80
2023-02-05T01:34:30.346Z,102384.35
2023-02-05T01:37:21.116Z,102391.84
2023-02-05T01:40:15.509Z,102393.08
2023-02-05T01:43:06.524Z,102398.45
2023-02-05T01:46:29.042Z,102405.13
2023-02-05T01:49:25.461Z,102406.02
2023-02-05T01:52:19.068Z,102397.23
2023-02-05T01:55:12.524Z,102399.43
2023-02-05T01:58:04.801Z,102406.14
2023-02-05T02:00:56.504Z,102406.88
2023-02-05T02:03:48.597Z,102401.02
2023-02-05T02:06:40.029Z,102398.05
2023-02-05T02:09:33.593Z,102388.74
2023-02-05T02:12:29.030Z,102396.27
2023-02-05T02:15:22.719Z,102400.76
2023-02-05T02:18:31.091Z,102401.23
2023-02-05T02:21:47.328Z,102395.36
2023-02-05T02:25:02.428Z,102396.71
2023-02-05T02:28:00.555Z,102396.96
2023-02-05T02:31:00.689Z,102398.52
2023-02-05T02:33:58.119Z,102396.02
2023-02-05T02:36:56.529Z,102397.38
2023-02-05T02:39:56.987Z,102401.06
2023-02-05T02:42:52.364Z,102403.16
2023-02-05T02:45:49.452Z,102406.48
2023-02-05T02:48:43.309Z,102405.86
2023-02-05T02:51:36.055Z,102410.85
2023-02-05T02:54:28.115Z,102409.80
2023-02-05T02:57:20.984Z,102405.23
2023-02-05T03:00:19.991Z,102403.77
2023-02-05T03:03:13.558Z,102404.45
2023-02-05T03:06:07.714Z,102404.67
2023-02-05T03:09:01.561Z,102405.65
2023-02-05T03:11:52.368Z,102408.55
2023-02-05T03:14:44.736Z,102413.97
2023-02-05T03:17:35.532Z,102415.52
2023-02-05T03:20:29.999Z,102411.72
2023-02-05T03:23:21.219Z,102413.40
2023-02-05T03:26:26.356Z,102418.52
2023-02-05T03:29:28.169Z,102420.73
2023-02-05T03:32:32.380Z,102425.34
2023-02-05T03:35:33.762Z,102424.06
2023-02-05T03:38:38.972Z,102426.87
2023-02-05T03:41:58.768Z,102432.45
2023-02-05T03:45:15.985Z,102435.85
2023-02-05T03:48:23.426Z,102431.55
2023-02-05T03:51:26.259Z,102430.31
2023-02-05T03:54:24.925Z,102427.23
2023-02-05T03:57:24.371Z,102424.09
2023-02-05T04:00:17.248Z,102416.14
2023-02-05T04:03:09.111Z,102415.58
2023-02-05T04:06:00.429Z,102412.76
2023-02-05T04:08:51.500Z,102414.28
2023-02-05T04:11:42.671Z,102415.73
2023-02-05T04:14:33.869Z,102416.48
2023-02-05T04:17:24.671Z,102419.77
2023-02-05T04:20:16.365Z,102424.83
2023-02-05T04:23:08.233Z,102431.31
2023-02-05T04:25:59.917Z,102437.62
2023-02-05T04:28:59.117Z,102441.55
2023-02-05T04:31:51.561Z,102449.61
2023-02-05T04:34:43.098Z,102451.52
2023-02-05T04:37:35.436Z,102446.52
2023-02-05T04:40:25.740Z,102443.38
2023-02-05T04:43:16.368Z,102447.52
2023-02-05T04:46:10.498Z,102447.68
2023-02-05T04:49:01.875Z,102447.05
2023-02-05T04:51:52.690Z,102448.52
2023-02-05T04:54:43.440Z,102447.36
2023-02-05T04:57:35.626Z,102449.15
2023-02-05T05:00:27.051Z,102448.95
2023-02-05T05:03:17.596Z,102444.97
2023-02-05T05:06:09.600Z,102440.63
2023-02-05T05:09:01.000Z,102436.88
2023-02-05T05:11:51.768Z,102447.21
2023-02-05T05:14:42.087Z,102450.37
2023-02-05T05:17:32.444Z,102456.11
2023-02-05T05:20:23.336Z,102454.82
2023-02-05T05:23:14.065Z,102451.28
2023-02-05T05:26:07.613Z,102456.52
2023-02-05T05:28:59.246Z,102455.47
2023-02-05T05:31:49.460Z,102451.20
2023-02-05T05:34:40.368Z,102449.73
2023-02-05T05:37:31.538Z,102451.65
2023-02-05T05:40:40.371Z,102453.09
2023-02-05T05:43:49.327Z,102462.27
2023-02-05T05:46:40.466Z,102462.68
2023-02-05T05:49:31.704Z,102467.19
2023-02-05T05:52:22.833Z,102466.08
2023-02-05T05:55:13.974Z,102463.36
2023-02-05T05:58:06.999Z,102466.98
2023-02-05T06:00:57.938Z,102471.94
2023-02-05T06:03:50.147Z,102473.06
2023-02-05T06:06:42.092Z,102477.84
2023-02-05T06:09:32.942Z,102481.35
2023-02-05T06:12:23.897Z,102484.75
2023-02-05T06:15:15.720Z,102483.95
2023-02-05T06:18:06.617Z,102484.55
2023-02-05T06:20:57.533Z,102480.88
2023-02-05T06:23:48.517Z,102481.08
2023-02-05T06:26:38.927Z,102490.21
2023-02-05T06:29:31.415Z,102490.96
2023-02-05T06:32:23.380Z,102495.15
2023-02-05T06:35:15.507Z,102504.34
2023-02-05T06:38:06.227Z,102497.13
2023-02-05T06:40:57.201Z,102498.91
2023-02-05T06:43:47.893Z,102504.37
2023-02-05T06:46:38.490Z,102507.80
2023-02-05T06:49:29.641Z,102510.48
2023-02-05T06:52:20.413Z,102510.79
2023-02-05T06:55:11.964Z,102510.84
2023-02-05T06:58:02.793Z,102505.50
2023-02-05T07:00:52.994Z,102509.73
2023-02-05T07:03:43.598Z,102513.52
2023-02-05T07:06:34.540Z,102514.45
2023-02-05T07:09:25.726Z,102517.23
2023-02-05T07:12:16.115Z,102518.17
2023-02-05T07:15:07.832Z,102514.71
2023-02-05T07:17:58.916Z,102515.50
2023-02-05T07:20:49.869Z,102523.46
2023-02-05T07:23:40.234Z,102526.34
2023-02-05T07:26:31.342Z,102531.23
2023-02-05T07:29:22.394Z,102539.29
2023-02-05T07:32:13.105Z,102533.17
2023-02-05T07:35:04.211Z,102529.36
2023-02-05T07:37:55.324Z,102526.70
2023-02-05T07:40:45.583Z,102527.92
2023-02-05T07:43:36.548Z,102530.92
2023-02-05T07:46:28.267Z,102531.30
2023-02-05T07:49:18.821Z,102534.45
2023-02-05T07:52:10.228Z,102534.96
2023-02-05T07:55:01.661Z,102537.79
2023-02-05T07:57:52.374Z,102546.11
2023-02-05T08:00:43.158Z,102552.77
2023-02-05T08:03:34.715Z,102551.82
2023-02-05T08:06:25.345Z,102553.71
2023-02-05T08:09:16.877Z,102562.00
2023-02-05T08:12:10.251Z,102561.60
2023-02-05T08:15:01.384Z,102557.66
2023-02-05T08:17:53.684Z,102553.64
2023-02-05T08:20:44.341Z,102550.50
2023-02-05T08:23:35.358Z,102550.91
2023-02-05T08:26:26.006Z,102552.19
2023-02-05T08:29:16.702Z,102560.17
2023-02-05T08:32:07.930Z,102559.83
2023-02-05T08:34:58.952Z,102563.98
2023-02-05T08:37:49.934Z,102566.04
2023-02-05T08:40:40.543Z,102570.49
2023-02-05T08:43:31.190Z,102561.17
2023-02-05T08:46:29.614Z,102559.50
2023-02-05T08:49:21.719Z,102554.81
2023-02-05T08:52:12.079Z,102555.42
2023-02-05T08:55:02.599Z,102565.80
2023-02-05T08:57:53.132Z,102570.77
2023-02-05T09:00:43.345Z,102574.27
2023-02-05T09:03:33.842Z,102578.04
2023-02-05T09:06:24.079Z,102588.19
2023-02-05T09:09:16.025Z,102594.30
2023-02-05T09:12:07.437Z,102600.98
2023-02-05T09:14:58.117Z,102598.77
2023-02-05T09:17:48.547Z,102596.33
2023-02-05T09:20:44.180Z,102601.71
2023-02-05T09:23:34.428Z,102603.44
2023-02-05T09:26:26.012Z,102605.23
2023-02-05T09:29:16.431Z,102609.36
2023-02-05T09:32:06.685Z,102612.16
2023-02-05T09:34:56.754Z,102611.31
2023-02-05T09:37:47.386Z,102617.71
2023-02-05T09:40:41.357Z,102622.35
2023-02-05T09:43:47.067Z,102620.09
2023-02-05T09:46:46.711Z,102619.27
2023-02-05T09:49:44.711Z,102614.88
2023-02-05T09:52:38.927Z,102619.81
2023-02-05T09:55:31.645Z,102618.08
2023-02-05T09:58:26.382Z,102616.90
2023-02-05T10:01:23.130Z,102614.23
2023-02-05T10:04:15.993Z,102617.95
2023-02-05T10:07:24.603Z,102614.48
2023-02-05T10:10:29.101Z,102617.45
2023-02-05T10:13:37.238Z,102619.81
2023-02-05T10:16:58.644Z,102616.78
2023-02-05T10:20:07.622Z,102623.05
2023-02-05T10:23:13.810Z,102621.55
2023-02-05T10:26:13.839Z,102617.47
2023-02-05T10:29:15.976Z,102619.73
2023-02-05T10:32:21.439Z,102620.98
2023-02-05T10:35:25.140Z,102622.48
2023-02-05T10:38:23.514Z,102622.71
2023-02-05T10:41:23.722Z,102609.96
2023-02-05T10:44:22.370Z,102601.91
2023-02-05T10:47:18.483Z,102593.81
2023-02-05T11:07:38.084Z,102575.34
2023-02-05T11:10:29.694Z,102568.00
2023-02-05T11:13:22.997Z,102561.98
2023-02-05T11:16:13.790Z,102564.54
2023-02-05T11:19:04.800Z,102567.96
2023-02-05T11:21:57.941Z,102568.37
2023-02-05T11:24:48.933Z,102564.49
2023-02-05T11:27:39.515Z,102563.36
2023-02-05T11:39:41.262Z,102551.99
2023-02-05T11:42:58.683Z,102552.97
2023-02-05T11:46:11.008Z,102547.19
2023-02-05T11:49:06.564Z,102546.70
2023-02-05T12:00:01.414Z,102556.77
2023-02-05T12:03:07.435Z,102556.14
2023-02-05T12:06:04.986Z,102551.08
2023-02-05T12:14:07.408Z,102550.33
2023-02-05T12:17:18.145Z,102544.61
2023-02-05T12:20:21.914Z,102529.98
2023-02-05T12:23:36.580Z,102524.66
2023-02-05T12:26:38.102Z,102523.00
2023-02-05T12:41:17.508Z,102492.33
2023-02-05T12:44:19.747Z,102482.86
2023-02-05T12:47:29.088Z,102477.84
2023-02-05T12:50:43.499Z,102473.48
2023-02-05T12:53:48.902Z,102465.02
2023-02-05T12:57:00.776Z,102457.18
2023-02-05T13:06:49.179Z,102457.98
2023-02-05T13:14:16.572Z,102458.38
2023-02-05T13:17:14.444Z,102465.83
2023-02-05T13:20:08.258Z,102469.14
2023-02-05T13:23:18.516Z,102470.04
2023-02-05T13:31:10.643Z,102477.85
2023-02-05T13:34:06.746Z,102478.96
2023-02-05T13:37:21.658Z,102481.69
2023-02-05T13:45:24.374Z,102479.77
2023-02-05T13:56:30.783Z,102479.63
2023-02-05T14:22:42.810Z,102445.27
2023-02-05T14:30:07.407Z,102438.02
2023-02-05T14:40:01.358Z,102435.55
2023-02-05T14:53:50.705Z,102445.98
2023-02-05T14:56:47.120Z,102448.45
2023-02-05T15:13:36.903Z,102437.93
2023-02-05T15:27:38.629Z,102442.30
2023-02-05T15:30:37.441Z,102442.38
2023-02-05T15:38:08.935Z,102431.70
2023-02-05T15:44:20.162Z,102422.85
2023-02-05T15:47:32.555Z,102418.77
2023-02-05T16:02:39.634Z,102430.88
2023-02-05T16:12:34.646Z,102424.09
2023-02-05T16:15:29.673Z,102422.30
2023-02-05T16:18:33.518Z,102418.77
2023-02-05T16:21:33.132Z,102414.67
2023-02-05T16:24:39.885Z,102416.42
2023-02-05T16:27:43.947Z,102420.88
2023-02-05T16:30:44.240Z,102423.05
2023-02-05T16:33:41.785Z,102418.59
2023-02-05T16:36:40.240Z,102415.98
2023-02-05T16:39:35.739Z,102416.38
2023-02-05T16:42:38.642Z,102421.66
2023-02-05T16:45:31.453Z,102420.10
2023-02-05T16:48:34.182Z,102422.83
2023-02-05T16:51:55.267Z,102431.02
2023-02-05T16:54:45.647Z,102436.11
2023-02-05T16:57:41.454Z,102445.14
2023-02-05T17:00:34.205Z,102450.66
2023-02-05T17:03:26.354Z,102453.86
2023-02-05T17:06:21.234Z,102448.44
2023-02-05T17:09:30.674Z,102442.91
2023-02-05T17:12:41.003Z,102447.46
2023-02-05T17:15:40.664Z,102452.68
2023-02-05T17:18:34.361Z,102455.71
2023-02-05T17:21:27.887Z,102458.64
2023-02-05T17:24:19.205Z,102451.60
2023-02-05T17:27:15.370Z,102448.33
2023-02-05T17:30:12.158Z,102453.02
2023-02-05T17:33:02.121Z,102462.33
2023-02-05T17:35:53.078Z,102462.43
2023-02-05T17:38:44.429Z,102469.04
2023-02-05T17:41:56.578Z,102466.98
2023-02-05T17:44:48.148Z,102470.83
2023-02-05T17:47:39.397Z,102476.77
2023-02-05T17:50:30.404Z,102482.93
2023-02-05T17:53:21.542Z,102491.05
2023-02-05T17:56:14.033Z,102492.71
2023-02-05T17:59:05.359Z,102492.94
2023-02-05T18:01:58.735Z,102492.84
2023-02-05T18:04:49.693Z,102493.08
2023-02-05T18:07:43.116Z,102494.85
2023-02-05T18:10:35.569Z,102502.51
2023-02-05T18:13:27.448Z,102505.61
2023-02-05T18:16:18.657Z,102506.09
2023-02-05T18:19:09.677Z,102513.05
2023-02-05T18:22:00.633Z,102517.92
2023-02-05T18:24:51.517Z,102522.75
2023-02-05T18:27:42.299Z,102523.30
2023-02-05T18:30:33.010Z,102523.13
2023-02-05T18:33:23.983Z,102525.80
2023-02-05T18:36:16.776Z,102526.73
2023-02-05T18:39:08.686Z,102519.84
2023-02-05T18:42:00.289Z,102522.45
2023-02-05T18:44:51.106Z,102526.23
2023-02-05T18:47:42.566Z,102533.33
2023-02-05T18:50:33.680Z,102546.92
2023-02-05T18:53:28.128Z,102554.16
2023-02-05T18:56:20.725Z,102551.95
2023-02-05T18:59:15.626Z,102546.16
2023-02-05T19:02:06.215Z,102549.84
2023-02-05T19:04:57.558Z,102544.59
2023-02-05T19:07:49.040Z,102543.30
2023-02-05T19:10:41.314Z,102544.50
2023-02-05T19:13:31.970Z,102541.73
2023-02-05T19:16:22.434Z,102543.04
2023-02-05T19:19:16.536Z,102541.83
2023-02-05T19:22:07.561Z,102555.05
2023-02-05T19:24:58.692Z,102566.10
2023-02-05T19:27:49.868Z,102569.07
2023-02-05T19:30:40.936Z,102571.95
2023-02-05T19:33:33.413Z,102570.82
2023-02-05T19:36:25.173Z,102572.44
2023-02-05T19:39:17.778Z,102576.98
2023-02-05T19:42:08.492Z,102578.79
2023-02-05T19:44:59.570Z,102575.96
2023-02-05T19:47:50.186Z,102576.55
2023-02-05T19:50:42.116Z,102579.89
2023-02-05T19:53:35.673Z,102589.63
2023-02-05T19:56:27.535Z,102588.80
2023-02-05T19:59:18.132Z,102594.61
2023-02-05T20:02:11.378Z,102598.65
2023-02-05T20:05:02.837Z,102601.61
2023-02-05T20:07:54.243Z,102601.08
2023-02-05T20:10:45.026Z,102603.77
2023-02-05T20:13:38.159Z,102609.34
2023-02-05T20:16:30.195Z,102607.54
2023-02-05T20:19:21.856Z,102613.81
2023-02-05T20:22:13.212Z,102612.46
2023-02-05T20:25:04.460Z,102614.01
2023-02-05T20:27:55.117Z,102608.93
2023-02-05T20:31:04.224Z,102612.99
2023-02-05T20:33:55.155Z,102621.50
2023-02-05T20:36:47.200Z,102610.98
2023-02-05T20:39:42.104Z,102611.89
2023-02-05T20:42:33.113Z,102614.87
2023-02-05T20:45:23.953Z,102610.56
2023-02-05T20:48:14.917Z,102613.50
2023-02-05T20:51:11.393Z,102612.27
2023-02-05T20:54:02.263Z,102621.78
2023-02-05T20:56:57.354Z,102614.59
2023-02-05T20:59:48.972Z,102614.11
2023-02-05T21:02:39.391Z,102610.41
2023-02-05T21:05:29.998Z,102603.19
2023-02-05T21:08:20.579Z,102603.11
2023-02-05T21:11:11.644Z,102600.95
2023-02-05T21:14:04.248Z,102596.70
2023-02-05T21:16:55.081Z,102599.14
2023-02-05T21:19:45.788Z,102605.31
2023-02-05T21:22:36.083Z,102603.09
2023-02-05T21:25:26.159Z,102599.83
2023-02-05T21:28:18.970Z,102602.10
2023-02-05T21:31:10.799Z,102613.40
2023-02-05T21:34:00.645Z,102612.30
2023-02-05T21:36:52.884Z,102616.27
2023-02-05T21:39:43.980Z,102615.16
2023-02-05T21:42:34.916Z,102615.52
2023-02-05T21:45:25.926Z,102615.40
2023-02-05T21:48:17.540Z,102609.54
2023-02-05T21:51:13.495Z,102606.04
2023-02-05T21:54:06.343Z,102608.39
2023-02-05T21:56:58.137Z,102616.64
2023-02-05T21:59:50.417Z,102613.96
2023-02-05T22:02:42.249Z,102617.93
2023-02-05T22:05:36.037Z,102625.86
2023-02-05T22:08:26.954Z,102635.58
2023-02-05T22:11:19.592Z,102636.90
2023-02-05T22:14:11.573Z,102647.06
2023-02-05T22:17:02.463Z,102657.33
2023-02-05T22:19:54.022Z,102660.14
2023-02-05T22:22:44.344Z,102656.95
2023-02-05T22:25:35.518Z,102661.81
2023-02-05T22:28:26.221Z,102663.27
2023-02-05T22:31:18.383Z,102662.85
2023-02-05T22:34:08.724Z,102660.95
2023-02-05T22:36:59.916Z,102663.95
2023-02-05T22:39:50.668Z,102663.52
2023-02-05T22:42:41.341Z,102662.77
2023-02-05T22:45:33.566Z,102658.49
2023-02-05T22:48:24.741Z,102650.61
2023-02-05T22:51:17.847Z,102653.73
2023-02-05T22:54:09.674Z,102657.55
2023-02-05T22:57:00.576Z,102667.48
2023-02-05T22:59:51.022Z,102669.63
2023-02-05T23:02:42.756Z,102672.53
2023-02-05T23:05:36.513Z,102680.83
2023-02-05T23:08:27.493Z,102678.14
2023-02-05T23:11:18.409Z,102684.92
2023-02-05T23:14:09.622Z,102690.38
2023-02-05T23:17:00.269Z,102681.50
2023-02-05T23:19:54.192Z,102683.65
2023-02-05T23:22:44.318Z,102692.65
2023-02-05T23:25:37.704Z,102699.52
2023-02-05T23:28:28.338Z,102700.35
2023-02-05T23:31:19.164Z,102706.73
2023-02-05T23:34:10.004Z,102709.17
2023-02-05T23:37:01.043Z,102711.52
2023-02-05T23:39:51.201Z,102707.80
2023-02-05T23:42:41.436Z,102721.69
2023-02-05T23:45:32.080Z,102731.73
2023-02-05T23:48:23.281Z,102732.30
2023-02-05T23:51:14.069Z,102741.48
2023-02-05T23:54:05.424Z,102733.07
2023-02-05T23:56:56.794Z,102732.43
2023-02-05T23:59:47.652Z,102732.52
